Time;durP1;ratioP1;P1;durP2;ratioP2;P2;SDS_P1;SDS_P2;PMS_P1;PMS_P2;Temp;Humidity;BMP_temperature;BMP_pressure;BME280_temperature;BME280_humidity;BME280_pressure;Samples;Min_cycle;Max_cycle;Signal;HPM_P1;HPM_P2
2021/05/07 00:01:10;;;;;;;3.80;2.40;;;;;;;10.35;55.63;97882.20;1824482;77;21453;-73
2021/05/07 00:03:36;;;;;;;4.28;2.58;;;;;;;10.39;55.55;97885.62;1834334;77;21132;-71
2021/05/07 00:06:06;;;;;;;6.50;2.62;;;;;;;10.42;55.72;97884.80;1828269;77;21121;-71
2021/05/07 00:08:33;;;;;;;3.37;2.60;;;;;;;10.48;55.84;97888.39;1827928;77;21180;-73
2021/05/07 00:11:04;;;;;;;3.80;2.47;;;;;;;10.50;55.89;97895.51;1825134;77;21172;-75
2021/05/07 00:13:30;;;;;;;4.10;2.22;;;;;;;10.53;55.99;97896.03;1809282;77;21141;-75
2021/05/07 00:15:57;;;;;;;3.10;2.42;;;;;;;10.51;56.19;97891.63;1826064;78;21610;-74
2021/05/07 00:18:23;;;;;;;3.83;1.87;;;;;;;10.52;56.22;97897.98;1833137;78;21192;-73
2021/05/07 00:20:49;;;;;;;2.75;1.70;;;;;;;10.53;56.06;97895.46;1822993;77;21294;-72
2021/05/07 00:23:15;;;;;;;3.27;1.90;;;;;;;10.57;55.79;97896.15;1823905;77;21763;-73
2021/05/07 00:25:41;;;;;;;2.47;1.70;;;;;;;10.65;55.66;97892.72;1821948;78;21165;-73
2021/05/07 00:28:09;;;;;;;2.33;1.60;;;;;;;10.73;55.69;97902.26;1824113;77;21113;-75
2021/05/07 00:30:35;;;;;;;2.60;1.67;;;;;;;10.80;55.77;97902.13;1827117;78;21157;-74
2021/05/07 00:33:01;;;;;;;3.90;1.83;;;;;;;10.87;55.81;97899.27;1824740;78;21133;-75
2021/05/07 00:35:27;;;;;;;3.62;2.00;;;;;;;10.93;55.98;97890.63;1823399;78;22061;-74
2021/05/07 00:37:54;;;;;;;2.70;1.98;;;;;;;10.95;56.11;97895.81;1827554;78;21298;-74
2021/05/07 00:40:20;;;;;;;2.45;1.77;;;;;;;10.98;56.28;97891.50;1821976;77;21167;-74
2021/05/07 00:42:46;;;;;;;3.20;1.77;;;;;;;11.02;56.38;97886.74;1828425;78;21148;-74
2021/05/07 00:45:14;;;;;;;3.95;1.77;;;;;;;11.03;56.53;97880.91;1814105;78;21499;-73
2021/05/07 00:47:59;;;;;;;2.92;1.72;;;;;;;11.06;56.79;97882.77;1827473;78;21159;-73
2021/05/07 00:50:27;;;;;;;2.67;1.77;;;;;;;11.08;56.95;97891.88;1821751;78;21183;-76
2021/05/07 00:52:54;;;;;;;;;;;;;;;11.06;57.29;97886.85;1826620;77;21156;-74
2021/05/07 00:55:20;;;;;;;4.33;2.10;;;;;;;11.10;57.16;97881.34;1829381;77;20570;-73
2021/05/07 00:57:46;;;;;;;3.72;2.45;;;;;;;11.10;56.93;97887.56;1830879;77;21338;-75
2021/05/07 01:00:13;;;;;;;3.25;2.15;;;;;;;11.07;57.33;97892.45;1824477;77;21140;-73
2021/05/07 01:02:38;;;;;;;4.23;2.13;;;;;;;11.05;57.54;97879.89;1823384;77;21589;-75
2021/05/07 01:05:06;;;;;;;2.55;1.98;;;;;;;11.04;57.71;97864.77;1826845;77;21658;-74
2021/05/07 01:07:32;;;;;;;3.70;2.47;;;;;;;11.01;57.88;97875.11;1828957;77;21152;-72
2021/05/07 01:10:00;;;;;;;3.70;2.20;;;;;;;10.99;58.05;97872.05;1835819;77;21149;-74
2021/05/07 01:12:28;;;;;;;4.10;2.02;;;;;;;10.97;58.28;97864.93;1826005;77;21164;-74
2021/05/07 01:15:05;;;;;;;3.67;2.20;;;;;;;10.95;58.78;97869.25;1824457;77;21638;-76
2021/05/07 01:17:32;;;;;;;3.63;2.30;;;;;;;10.93;59.05;97860.75;1823535;77;21132;-73
2021/05/07 01:20:14;;;;;;;4.58;2.50;;;;;;;10.86;59.25;97855.64;1827079;77;21163;-74
2021/05/07 01:22:41;;;;;;;3.02;2.40;;;;;;;10.81;59.82;97851.30;1830701;77;21160;-72
2021/05/07 01:25:07;;;;;;;3.25;2.35;;;;;;;10.73;60.02;97856.69;1838007;77;21129;-75
2021/05/07 01:27:37;;;;;;;3.72;2.67;;;;;;;10.68;60.31;97840.28;1834670;77;21170;-73
2021/05/07 01:30:16;;;;;;;3.22;2.20;;;;;;;8.17;60.39;97484.25;1831023;77;21180;-75
2021/05/07 01:32:42;;;;;;;3.72;2.10;;;;;;;10.53;60.64;97843.89;1838350;77;21219;-73
2021/05/07 01:35:13;;;;;;;2.75;2.10;;;;;;;10.41;60.88;97831.68;1833551;77;21156;-72
2021/05/07 01:37:41;;;;;;;4.62;2.25;;;;;;;10.34;61.27;97822.90;1837538;77;21701;-76
2021/05/07 01:40:14;;;;;;;3.52;2.58;;;;;;;10.27;61.64;97814.31;1834014;77;21188;-73
2021/05/07 01:42:47;;;;;;;3.40;2.50;;;;;;;10.19;62.19;97807.45;1798543;79;22457;-72
2021/05/07 01:45:15;;;;;;;2.80;2.20;;;;;;;10.18;62.22;97804.58;1773523;80;21165;-71
2021/05/07 01:47:41;;;;;;;4.25;2.60;;;;;;;10.15;62.42;97804.06;1786874;80;21209;-73
2021/05/07 01:50:08;;;;;;;3.02;2.30;;;;;;;10.11;62.64;97797.92;1763303;80;21152;-71
2021/05/07 01:52:34;;;;;;;5.35;2.50;;;;;;;10.07;62.88;97787.73;1760002;81;21204;-73
2021/05/07 01:55:01;;;;;;;2.52;2.33;;;;;;;10.03;63.05;97794.56;1759829;81;21317;-75
2021/05/07 01:57:29;;;;;;;2.92;2.40;;;;;;;9.99;63.31;97793.28;1760102;81;21168;-74
2021/05/07 01:59:55;;;;;;;4.70;2.60;;;;;;;9.96;63.36;97783.86;1759320;81;21523;-75
2021/05/07 02:02:24;;;;;;;4.08;2.67;;;;;;;9.95;63.58;97776.88;1759829;81;21228;-74
2021/05/07 02:04:50;;;;;;;3.27;2.85;;;;;;;9.95;63.77;97772.81;1760042;81;21489;-75
2021/05/07 02:07:16;;;;;;;3.25;2.47;;;;;;;9.94;63.86;97767.99;1759790;81;21358;-73
2021/05/07 02:09:43;;;;;;;3.20;2.70;;;;;;;9.95;63.89;97763.33;1743878;81;21478;-76
2021/05/07 02:12:09;;;;;;;4.12;2.75;;;;;;;9.93;63.80;97754.27;1759703;81;21224;-72
2021/05/07 02:14:35;;;;;;;3.30;2.83;;;;;;;9.92;63.92;97756.02;1730145;81;21582;-76
2021/05/07 02:17:01;;;;;;;4.43;2.50;;;;;;;9.90;63.94;97750.24;1759981;81;21187;-73
2021/05/07 02:19:27;;;;;;;3.58;2.60;;;;;;;9.87;64.01;97749.12;1759858;81;21759;-74
2021/05/07 02:21:53;;;;;;;3.40;2.90;;;;;;;9.84;63.96;97747.25;1759900;81;21148;-76
2021/05/07 02:24:19;;;;;;;4.67;2.42;;;;;;;9.83;64.11;97751.16;1759723;81;21215;-75
2021/05/07 02:26:46;;;;;;;3.15;2.35;;;;;;;9.82;64.11;97734.72;1759913;81;21200;-73
2021/05/07 02:29:12;;;;;;;5.08;2.30;;;;;;;9.81;64.17;97730.45;1759795;81;21273;-76
2021/05/07 02:31:38;;;;;;;3.37;2.27;;;;;;;9.82;64.25;97727.15;1759893;81;21223;-73
2021/05/07 02:34:04;;;;;;;4.05;2.40;;;;;;;9.81;64.30;97729.09;1759773;81;21225;-72
2021/05/07 02:36:30;;;;;;;3.25;2.47;;;;;;;9.81;64.27;97720.20;1759835;81;21620;-74
2021/05/07 02:38:56;;;;;;;4.58;2.52;;;;;;;9.81;64.19;97714.78;1789785;80;21175;-72
2021/05/07 02:41:22;;;;;;;3.35;2.52;;;;;;;9.80;64.06;97711.31;1786729;80;21189;-74
2021/05/07 02:43:48;;;;;;;2.83;2.40;;;;;;;9.81;64.06;97710.12;1777460;80;21161;-76
2021/05/07 02:46:15;;;;;;;3.47;2.27;;;;;;;9.82;64.18;97706.25;1777343;81;21232;-72
2021/05/07 02:48:41;;;;;;;3.08;2.30;;;;;;;9.83;64.08;97694.80;1777639;80;21517;-73
2021/05/07 02:51:07;;;;;;;3.47;2.22;;;;;;;9.84;64.10;97695.73;1777413;81;21323;-73
2021/05/07 02:53:33;;;;;;;3.52;2.20;;;;;;;9.84;64.01;97690.30;1777141;80;21157;-75
2021/05/07 02:55:59;;;;;;;2.67;2.12;;;;;;;9.85;64.01;97683.72;1776728;81;21783;-74
2021/05/07 02:58:25;;;;;;;3.85;2.30;;;;;;;9.86;63.98;97678.46;1777223;81;21181;-75
2021/05/07 03:00:51;;;;;;;3.30;2.30;;;;;;;9.87;63.98;97685.41;1776953;80;21196;-76
2021/05/07 03:03:17;;;;;;;3.37;2.00;;;;;;;9.86;63.68;97678.46;1776869;81;21216;-75
2021/05/07 03:05:43;;;;;;;3.25;1.98;;;;;;;9.87;63.65;97673.20;1776927;81;22301;-73
2021/05/07 03:08:09;;;;;;;3.27;2.12;;;;;;;9.88;63.64;97680.17;1777147;81;21193;-74
2021/05/07 03:10:35;;;;;;;2.50;1.80;;;;;;;9.88;63.48;97676.70;1776909;81;21157;-73
2021/05/07 03:13:01;;;;;;;3.65;2.10;;;;;;;9.89;63.45;97674.16;1776866;81;21348;-73
2021/05/07 03:15:29;;;;;;;3.05;2.10;;;;;;;9.90;63.44;97671.60;1776730;81;21218;-73
2021/05/07 03:17:55;;;;;;;3.67;2.05;;;;;;;9.88;63.37;97657.12;1777149;81;21192;-72
2021/05/07 03:20:22;;;;;;;3.85;2.10;;;;;;;9.91;63.34;97659.59;1776872;81;21530;-73
2021/05/07 03:22:48;;;;;;;3.42;2.20;;;;;;;9.92;63.20;97659.16;1777144;81;21177;-74
2021/05/07 03:25:14;;;;;;;2.85;2.10;;;;;;;9.94;63.14;97657.39;1776890;81;21523;-74
2021/05/07 03:27:40;;;;;;;4.03;2.30;;;;;;;9.96;63.13;97659.11;1777141;80;21169;-76
2021/05/07 03:30:07;;;;;;;4.17;2.30;;;;;;;10.00;63.12;97653.00;1776781;81;21184;-76
2021/05/07 03:32:33;;;;;;;3.10;1.90;;;;;;;10.05;62.84;97659.30;1777023;81;21188;-75
2021/05/07 03:34:59;;;;;;;3.17;2.00;;;;;;;10.09;62.62;97660.58;1776840;81;21985;-73
2021/05/07 03:37:25;;;;;;;4.05;2.05;;;;;;;10.11;62.50;97658.98;1776848;81;21506;-75
2021/05/07 03:39:51;;;;;;;4.03;1.80;;;;;;;10.19;62.37;97654.17;1776884;81;21201;-72
2021/05/07 03:42:17;;;;;;;4.55;3.10;;;;;;;10.26;62.21;97649.97;1776687;81;21180;-73
2021/05/07 03:44:43;;;;;;;5.60;3.60;;;;;;;10.37;62.01;97650.52;1777078;80;21153;-72
2021/05/07 03:47:09;;;;;;;5.55;3.27;;;;;;;10.47;61.72;97639.84;1776762;81;21387;-74
2021/05/07 03:49:35;;;;;;;6.58;3.55;;;;;;;10.55;61.56;97624.93;1776834;81;21738;-72
2021/05/07 03:52:01;;;;;;;4.50;2.72;;;;;;;10.60;61.45;97618.40;1776906;81;21380;-73
2021/05/07 03:54:30;;;;;;;3.30;2.58;;;;;;;10.65;61.23;97621.97;1776851;81;21614;-72
2021/05/07 03:56:56;;;;;;;4.20;2.92;;;;;;;10.73;60.95;97623.17;1776949;81;21200;-77
2021/05/07 03:59:22;;;;;;;4.03;2.55;;;;;;;10.80;60.81;97621.05;1776936;81;21200;-73
2021/05/07 04:01:48;;;;;;;4.03;2.90;;;;;;;10.93;60.68;97628.51;1776790;81;21169;-74
2021/05/07 04:04:14;;;;;;;4.20;2.50;;;;;;;11.02;60.24;97636.81;1776866;81;21180;-74
2021/05/07 04:06:40;;;;;;;3.40;2.10;;;;;;;11.08;60.01;97646.00;1776896;81;21326;-74
2021/05/07 04:09:13;;;;;;;3.17;2.00;;;;;;;11.11;59.70;97638.35;1776820;81;21192;-74
2021/05/07 04:11:54;;;;;;;2.25;1.80;;;;;;;11.11;59.44;97649.98;1777000;80;21510;-76
2021/05/07 04:14:08;;;;;;;2.72;1.87;;;;;;;11.07;59.29;97652.00;1777256;80;21184;-74
2021/05/07 04:16:34;;;;;;;4.03;2.02;;;;;;;11.08;59.21;97665.02;1776653;81;21169;-74
2021/05/07 04:19:00;;;;;;;3.92;1.92;;;;;;;11.07;59.15;97660.75;1776767;81;21908;-77
2021/05/07 04:21:26;;;;;;;2.27;1.70;;;;;;;11.05;58.91;97668.59;1776758;81;21235;-72
2021/05/07 04:23:52;;;;;;;3.90;2.10;;;;;;;11.01;58.91;97667.30;1777017;81;21622;-74
2021/05/07 04:26:19;;;;;;;3.10;1.87;;;;;;;10.99;58.91;97666.95;1776817;81;21145;-75
2021/05/07 04:28:45;;;;;;;3.42;2.15;;;;;;;10.99;59.07;97666.19;1777043;80;21595;-77
2021/05/07 04:31:11;;;;;;;4.33;1.92;;;;;;;10.95;58.86;97665.52;1776852;80;21192;-73
2021/05/07 04:33:37;;;;;;;2.60;2.02;;;;;;;10.91;58.81;97658.80;1776813;81;21137;-73
2021/05/07 04:36:04;;;;;;;3.45;1.85;;;;;;;10.91;58.75;97653.97;1777085;81;21327;-75
2021/05/07 04:38:30;;;;;;;3.05;2.15;;;;;;;10.91;58.61;97644.45;1753015;81;21185;-76
2021/05/07 04:40:56;;;;;;;4.22;2.10;;;;;;;10.93;58.46;97633.94;1750423;81;21188;-74
2021/05/07 04:43:22;;;;;;;2.80;1.92;;;;;;;10.96;58.26;97628.41;1686370;83;21820;-73
2021/05/07 04:45:48;;;;;;;2.45;2.12;;;;;;;11.00;58.15;97630.46;1725057;82;21165;-75
2021/05/07 04:48:15;;;;;;;3.60;2.20;;;;;;;11.06;58.16;97629.35;1754294;81;21181;-73
2021/05/07 04:50:41;;;;;;;4.45;2.35;;;;;;;11.13;57.95;97618.89;1754094;82;21610;-73
2021/05/07 04:53:07;;;;;;;3.75;2.12;;;;;;;11.17;57.82;97623.05;1754275;81;21200;-74
2021/05/07 04:55:33;;;;;;;3.05;2.15;;;;;;;11.23;57.74;97619.22;1738383;81;21137;-72
2021/05/07 04:57:59;;;;;;;4.33;2.52;;;;;;;11.26;57.49;97623.20;1724258;82;21342;-74
2021/05/07 05:00:25;;;;;;;3.25;2.42;;;;;;;11.30;57.54;97626.60;1731143;82;22277;-73
2021/05/07 05:02:51;;;;;;;4.67;2.20;;;;;;;11.33;57.27;97624.98;1737332;81;21165;-73
2021/05/07 05:05:18;;;;;;;3.27;2.20;;;;;;;11.36;57.45;97630.92;1724117;83;21324;-75
2021/05/07 05:07:58;;;;;;;4.17;2.00;;;;;;;11.39;57.37;97623.87;1724357;82;21212;-73
2021/05/07 05:10:21;;;;;;;3.20;2.08;;;;;;;11.45;57.07;97626.22;1728839;82;21176;-75
2021/05/07 05:12:47;;;;;;;3.02;2.17;;;;;;;11.51;57.01;97628.00;1744524;82;21209;-75
2021/05/07 05:15:14;;;;;;;4.17;2.10;;;;;;;11.63;56.74;97628.48;1716080;83;21218;-72
2021/05/07 05:17:40;;;;;;;2.63;2.00;;;;;;;11.73;56.40;97626.05;1738552;82;21270;-74
2021/05/07 05:20:07;;;;;;;4.65;2.30;;;;;;;11.82;56.26;97633.60;1741489;81;21319;-73
2021/05/07 05:22:33;;;;;;;2.12;1.80;;;;;;;11.84;55.97;97629.83;1739494;82;21176;-74
2021/05/07 05:25:04;;;;;;;4.28;1.90;;;;;;;11.85;55.85;97633.49;1748068;82;21708;-72
2021/05/07 05:27:27;;;;;;;2.50;1.82;;;;;;;11.87;55.66;97626.30;1740240;81;21137;-76
2021/05/07 05:29:53;;;;;;;4.03;1.90;;;;;;;11.92;55.63;97618.38;1746388;82;21497;-72
2021/05/07 05:32:19;;;;;;;4.15;1.85;;;;;;;11.97;55.39;97621.13;1740280;82;21601;-72
2021/05/07 05:34:45;;;;;;;4.15;2.05;;;;;;;12.06;55.12;97634.09;1740791;82;21303;-72
2021/05/07 05:37:11;;;;;;;2.37;2.02;;;;;;;12.15;54.80;97628.80;1741913;82;21299;-72
2021/05/07 05:39:37;;;;;;;4.40;2.17;;;;;;;12.30;54.69;97636.69;1745566;82;21295;-75
2021/05/07 05:42:04;;;;;;;3.15;2.27;;;;;;;12.39;54.23;97628.66;1743586;80;21661;-73
2021/05/07 05:44:30;;;;;;;4.72;2.08;;;;;;;12.49;54.15;97630.87;1769863;80;21240;-72
2021/05/07 05:46:56;;;;;;;4.33;2.20;;;;;;;12.69;53.88;97630.67;1768576;80;21208;-73
2021/05/07 05:49:22;;;;;;;3.30;2.20;;;;;;;12.93;53.50;97631.09;1778086;80;21591;-73
2021/05/07 05:51:48;;;;;;;3.20;2.22;;;;;;;13.15;53.01;97629.79;1762355;80;21342;-74
2021/05/07 05:54:14;;;;;;;3.12;2.10;;;;;;;13.25;52.63;97636.07;1784958;80;21627;-73
2021/05/07 05:56:40;;;;;;;6.42;2.40;;;;;;;13.23;52.31;97640.63;1785025;80;21318;-73
2021/05/07 05:59:06;;;;;;;3.22;2.10;;;;;;;13.14;52.44;97641.13;1774006;80;21657;-76
2021/05/07 06:01:32;;;;;;;3.10;2.10;;;;;;;13.00;52.42;97639.02;1753639;82;21335;-75
2021/05/07 06:03:58;;;;;;;4.30;2.30;;;;;;;12.86;52.75;97642.20;1753704;82;21331;-72
2021/05/07 06:06:24;;;;;;;5.10;2.35;;;;;;;12.80;52.86;97635.19;1754123;81;21330;-75
2021/05/07 06:08:50;;;;;;;3.52;2.22;;;;;;;12.87;52.70;97640.39;1753949;82;21224;-75
2021/05/07 06:11:16;;;;;;;4.25;2.50;;;;;;;12.98;52.79;97644.74;1753961;81;21673;-72
2021/05/07 06:13:42;;;;;;;5.42;2.20;;;;;;;13.02;52.50;97638.59;1754017;81;21339;-73
2021/05/07 06:16:08;;;;;;;3.87;2.40;;;;;;;13.07;52.47;97634.71;1753992;81;21153;-75
2021/05/07 06:18:34;;;;;;;3.12;2.25;;;;;;;13.17;52.23;97640.23;1753752;81;21335;-72
2021/05/07 06:21:00;;;;;;;3.77;2.30;;;;;;;13.32;52.05;97652.23;1753888;81;21318;-74
2021/05/07 06:23:26;;;;;;;3.55;2.50;;;;;;;13.46;51.77;97650.98;1754022;81;21212;-72
2021/05/07 06:25:52;;;;;;;4.53;2.45;;;;;;;13.60;51.65;97640.19;1753967;81;21319;-73
2021/05/07 06:28:18;;;;;;;4.53;2.52;;;;;;;13.78;51.37;97641.70;1754322;82;21201;-73
2021/05/07 06:30:44;;;;;;;5.80;2.62;;;;;;;13.89;51.12;97629.80;1754222;82;21235;-74
2021/05/07 06:33:11;;;;;;;4.10;2.62;;;;;;;14.11;50.92;97639.33;1754226;81;21188;-75
2021/05/07 06:35:36;;;;;;;2.50;1.95;;;;;;;14.32;50.43;97632.90;1754241;81;21165;-73
2021/05/07 06:38:09;;;;;;;4.67;2.30;;;;;;;14.43;50.08;97631.30;1772472;80;21273;-72
2021/05/07 06:40:35;;;;;;;5.12;2.30;;;;;;;14.63;49.81;97635.66;1784318;80;21192;-74
2021/05/07 06:43:02;;;;;;;5.92;2.40;;;;;;;14.82;49.43;97636.48;1784693;80;21176;-74
2021/05/07 06:45:28;;;;;;;4.95;2.42;;;;;;;15.03;49.03;97640.31;1785139;80;21149;-73
2021/05/07 06:47:54;;;;;;;2.90;2.33;;;;;;;15.18;48.89;97647.34;1785365;80;21195;-73
2021/05/07 06:50:21;;;;;;;6.45;2.60;;;;;;;15.22;48.62;97645.98;1784906;80;21184;-72
2021/05/07 06:52:48;;;;;;;3.87;2.52;;;;;;;15.24;48.63;97627.74;1784538;80;21223;-74
2021/05/07 06:55:14;;;;;;;3.17;2.50;;;;;;;15.36;48.47;97625.48;1754085;80;21193;-76
2021/05/07 06:57:40;;;;;;;3.62;2.58;;;;;;;15.50;48.35;97633.09;1784369;80;21220;-75
2021/05/07 07:00:08;;;;;;;3.83;2.20;;;;;;;15.64;47.74;97641.91;1756877;80;21168;-73
2021/05/07 07:02:34;;;;;;;2.65;2.25;;;;;;;15.73;47.83;97658.34;1760382;80;21156;-71
2021/05/07 07:05:00;;;;;;;3.70;2.00;;;;;;;15.89;47.87;97665.48;1758231;80;21168;-73
2021/05/07 07:07:27;;;;;;;3.25;2.25;;;;;;;16.02;47.35;97668.82;1754069;82;21670;-72
2021/05/07 07:09:53;;;;;;;5.08;2.47;;;;;;;16.05;47.20;97665.16;1754538;82;21200;-72
2021/05/07 07:12:19;;;;;;;4.08;2.47;;;;;;;16.01;46.92;97655.58;1724712;82;22191;-75
2021/05/07 07:14:45;;;;;;;3.43;2.37;;;;;;;15.97;47.12;97663.95;1734708;80;21485;-75
2021/05/07 07:17:11;;;;;;;3.70;2.40;;;;;;;15.92;47.16;97664.56;1785045;80;21314;-73
2021/05/07 07:19:37;;;;;;;5.00;2.50;;;;;;;15.88;47.21;97664.73;1785383;80;21188;-74
2021/05/07 07:22:04;;;;;;;3.10;2.27;;;;;;;15.95;47.42;97660.30;1784847;80;21370;-73
2021/05/07 07:24:30;;;;;;;4.90;2.47;;;;;;;16.05;47.29;97661.67;1785249;80;21187;-72
2021/05/07 07:26:56;;;;;;;3.00;2.50;;;;;;;16.15;47.21;97663.15;1770300;80;21164;-73
2021/05/07 07:29:22;;;;;;;4.25;2.50;;;;;;;16.18;46.88;97660.27;1765991;80;21696;-73
2021/05/07 07:31:48;;;;;;;4.53;2.30;;;;;;;16.11;46.84;97663.31;1764343;80;21180;-72
2021/05/07 07:34:14;;;;;;;3.27;2.22;;;;;;;16.04;46.91;97657.39;1759988;80;21619;-74
2021/05/07 07:36:40;;;;;;;3.67;2.40;;;;;;;15.95;47.05;97651.33;1726616;82;21627;-74
2021/05/07 07:39:06;;;;;;;4.70;2.47;;;;;;;15.96;47.11;97652.25;1766975;80;21490;-73
2021/05/07 07:41:33;;;;;;;4.72;2.30;;;;;;;16.06;47.02;97654.34;1777325;81;21169;-72
2021/05/07 07:43:59;;;;;;;3.83;2.20;;;;;;;16.16;46.90;97649.62;1757764;80;21181;-73
2021/05/07 07:46:25;;;;;;;2.92;2.27;;;;;;;16.30;47.02;97646.23;1753522;81;21391;-72
2021/05/07 07:48:52;;;;;;;3.20;2.37;;;;;;;16.45;46.35;97651.84;1756628;80;21177;-73
2021/05/07 07:51:18;;;;;;;2.72;2.27;;;;;;;16.55;46.47;97653.91;1757866;81;21197;-72
2021/05/07 07:53:44;;;;;;;4.85;2.20;;;;;;;16.65;46.53;97657.53;1754377;81;21141;-74
2021/05/07 07:56:10;;;;;;;2.70;2.22;;;;;;;16.84;46.38;97648.64;1758777;81;21744;-73
2021/05/07 07:58:36;;;;;;;2.95;1.80;;;;;;;16.96;46.24;97638.67;1760216;81;21367;-72
2021/05/07 08:01:02;;;;;;;4.22;2.50;;;;;;;17.00;46.51;97661.21;1757956;80;21614;-74
2021/05/07 08:03:28;;;;;;;3.47;2.15;;;;;;;17.16;46.04;97651.83;1755601;81;21117;-74
2021/05/07 08:05:54;;;;;;;4.00;2.30;;;;;;;17.24;45.81;97656.33;1757512;80;21180;-73
2021/05/07 08:08:20;;;;;;;3.62;2.37;;;;;;;17.35;45.63;97657.17;1757593;81;21349;-70
2021/05/07 08:10:46;;;;;;;3.15;2.20;;;;;;;17.50;45.62;97649.75;1752828;81;21196;-72
2021/05/07 08:13:12;;;;;;;3.12;2.12;;;;;;;17.56;44.99;97655.36;1706174;83;21170;-74
2021/05/07 08:15:38;;;;;;;3.72;2.30;;;;;;;17.64;44.77;97642.78;1758590;81;21304;-72
2021/05/07 08:18:04;;;;;;;3.00;2.22;;;;;;;17.70;44.58;97645.77;1714176;82;22327;-69
2021/05/07 08:20:30;;;;;;;2.52;2.00;;;;;;;17.64;44.30;97646.91;1745938;82;21713;-70
2021/05/07 08:22:56;;;;;;;2.50;1.90;;;;;;;17.54;44.49;97647.58;1746184;82;21354;-70
2021/05/07 08:25:23;;;;;;;4.75;2.17;;;;;;;17.59;44.37;97652.42;1746055;82;21633;-75
2021/05/07 08:27:49;;;;;;;3.83;2.35;;;;;;;17.78;44.26;97650.28;1746140;82;21236;-71
2021/05/07 08:30:15;;;;;;;3.77;2.33;;;;;;;17.99;43.97;97650.45;1746008;82;21292;-74
2021/05/07 08:32:41;;;;;;;4.10;2.50;;;;;;;18.16;43.57;97646.74;1750913;80;21456;-73
2021/05/07 08:35:08;;;;;;;4.25;2.30;;;;;;;18.30;43.30;97645.84;1778299;80;21173;-71
2021/05/07 08:37:42;;;;;;;;;;;;;;;18.29;43.26;97649.21;1762114;81;21176;-69
2021/05/07 08:40:06;;;;;;;3.90;2.30;;;;;;;18.41;43.65;97631.69;1748694;81;20288;-71
2021/05/07 08:42:33;;;;;;;6.00;2.30;;;;;;;18.47;43.44;97646.89;1755384;80;21199;-71
2021/05/07 08:44:59;;;;;;;3.45;2.40;;;;;;;18.52;43.91;97647.56;1759307;80;21160;-72
2021/05/07 08:47:28;;;;;;;3.08;2.05;;;;;;;18.41;43.38;97648.77;1759414;81;21492;-73
2021/05/07 08:49:53;;;;;;;3.50;2.30;;;;;;;18.15;43.45;97641.73;1759372;80;21168;-70
2021/05/07 08:52:19;;;;;;;3.50;2.35;;;;;;;17.89;44.12;97645.02;1759497;81;21168;-74
2021/05/07 08:54:46;;;;;;;3.62;2.20;;;;;;;17.69;44.19;97653.12;1767445;80;21185;-71
2021/05/07 08:57:12;;;;;;;3.60;2.40;;;;;;;17.61;44.67;97649.22;1759290;81;21325;-71
2021/05/07 08:59:38;;;;;;;2.92;2.22;;;;;;;17.57;44.76;97653.52;1759663;80;21202;-70
2021/05/07 09:02:04;;;;;;;4.15;2.20;;;;;;;17.57;44.59;97652.74;1759340;81;21198;-69
2021/05/07 09:04:30;;;;;;;3.65;2.37;;;;;;;17.61;44.42;97654.70;1762381;80;21553;-71
2021/05/07 09:06:56;;;;;;;2.85;2.10;;;;;;;17.63;44.41;97658.50;1783693;80;21181;-73
2021/05/07 09:09:28;;;;;;;3.30;2.20;;;;;;;17.87;44.25;97664.57;1763510;80;21701;-70
2021/05/07 09:11:58;;;;;;;4.87;2.47;;;;;;;18.29;44.04;97654.71;1790850;80;21156;-71
2021/05/07 09:14:25;;;;;;;4.35;2.08;;;;;;;18.71;43.54;97663.23;1766157;80;21161;-71
2021/05/07 09:16:58;;;;;;;3.50;2.05;;;;;;;19.01;42.79;97658.44;1759619;81;21183;-71
2021/05/07 09:19:28;;;;;;;2.90;2.25;;;;;;;19.29;42.35;97667.09;1759368;81;21206;-70
2021/05/07 09:21:55;;;;;;;3.40;2.10;;;;;;;19.53;41.99;97678.50;1759387;80;22245;-69
2021/05/07 09:24:34;;;;;;;4.63;2.17;;;;;;;19.75;41.50;97675.27;1782958;80;21227;-72
2021/05/07 09:27:00;;;;;;;2.70;2.08;;;;;;;20.07;41.22;97673.36;1763657;80;21448;-73
2021/05/07 09:29:30;;;;;;;3.72;2.22;;;;;;;20.28;41.05;97672.69;1759014;80;21208;-71
2021/05/07 09:31:56;;;;;;;5.05;3.35;;;;;;;20.55;40.55;97670.69;1731752;80;21493;-73
2021/05/07 09:34:22;;;;;;;3.47;2.42;;;;;;;20.76;40.12;97665.80;1730368;81;21242;-71
2021/05/07 09:36:49;;;;;;;3.83;2.45;;;;;;;20.73;39.87;97669.55;1766506;80;21199;-74
2021/05/07 09:39:17;;;;;;;3.00;2.40;;;;;;;20.67;39.51;97655.72;1764713;80;22334;-71
2021/05/07 09:41:45;;;;;;;2.72;2.17;;;;;;;20.65;39.33;97660.97;1776465;80;21179;-74
2021/05/07 09:44:15;;;;;;;4.95;2.10;;;;;;;20.56;39.52;97669.43;1759042;80;21177;-72
2021/05/07 09:46:41;;;;;;;3.95;2.30;;;;;;;20.49;39.53;97663.72;1753937;81;21212;-71
2021/05/07 09:49:07;;;;;;;2.80;2.00;;;;;;;20.25;39.52;97653.62;1759819;80;21181;-71
2021/05/07 09:51:42;;;;;;;3.62;2.40;;;;;;;20.24;39.88;97650.70;1757952;81;21677;-71
2021/05/07 09:54:09;;;;;;;4.30;2.60;;;;;;;20.20;39.95;97652.31;1754467;80;21169;-71
2021/05/07 09:56:35;;;;;;;4.93;2.30;;;;;;;20.12;40.36;97646.47;1753014;81;21201;-71
2021/05/07 09:59:02;;;;;;;3.50;2.27;;;;;;;19.99;40.55;97640.59;1750768;80;21183;-72
2021/05/07 10:01:28;;;;;;;;;;;;;;;19.84;40.35;97647.59;1759736;80;21605;-71
2021/05/07 10:03:55;;;;;;;4.17;2.27;;;;;;;19.62;40.73;97654.97;1757973;80;20192;-71
2021/05/07 10:06:23;;;;;;;3.40;2.10;;;;;;;19.44;41.15;97661.50;1762923;80;21161;-70
2021/05/07 10:08:49;;;;;;;;;;;;;;;19.35;41.15;97666.41;1754044;81;21184;-70
2021/05/07 10:11:15;;;;;;;5.10;2.62;;;;;;;19.45;41.23;97652.02;1756976;81;20191;-71
2021/05/07 10:13:41;;;;;;;5.40;2.37;;;;;;;19.48;41.03;97657.94;1760112;80;21193;-70
2021/05/07 10:16:08;;;;;;;3.10;2.37;;;;;;;19.55;41.33;97664.26;1757600;80;21173;-72
2021/05/07 10:18:36;;;;;;;;;;;;;;;19.67;40.91;97668.08;1764651;81;21223;-71
2021/05/07 10:21:03;;;;;;;2.58;1.87;;;;;;;19.92;41.00;97667.21;1751773;81;20130;-72
2021/05/07 10:23:30;;;;;;;3.67;2.17;;;;;;;20.11;40.63;97663.52;1753915;81;21178;-71
2021/05/07 10:26:02;;;;;;;3.65;2.40;;;;;;;19.98;40.50;97665.27;1743917;81;22262;-73
2021/05/07 10:28:32;;;;;;;3.77;2.20;;;;;;;19.80;40.60;97673.83;1757159;80;21144;-72
2021/05/07 10:31:05;;;;;;;4.78;3.02;;;;;;;19.68;40.59;97676.46;1754197;80;21173;-71
2021/05/07 10:33:31;;;;;;;2.95;2.50;;;;;;;19.63;41.06;97684.01;1721669;82;21638;-71
2021/05/07 10:35:57;;;;;;;2.70;2.10;;;;;;;19.48;41.21;97681.97;1757528;81;21188;-71
2021/05/07 10:38:23;;;;;;;3.40;1.90;;;;;;;19.40;41.24;97683.61;1722291;82;21149;-71
2021/05/07 10:40:51;;;;;;;3.50;2.13;;;;;;;19.37;41.17;97677.67;1726904;82;21188;-70
2021/05/07 10:43:17;;;;;;;;;;;;;;;19.22;41.38;97692.25;1764561;80;21187;-73
2021/05/07 10:45:50;;;;;;;4.65;3.40;;;;;;;19.18;41.67;97697.81;1769725;80;20186;-72
2021/05/07 10:48:21;;;;;;;2.50;1.90;;;;;;;19.12;42.00;97702.48;1763402;80;21168;-72
2021/05/07 10:50:49;;;;;;;3.45;2.35;;;;;;;19.06;41.97;97695.53;1767064;80;21130;-73
2021/05/07 10:53:32;;;;;;;2.85;2.10;;;;;;;19.12;41.99;97697.73;1769290;80;21224;-72
2021/05/07 10:55:58;;;;;;;4.33;2.27;;;;;;;19.41;41.67;97701.02;1760125;80;21129;-71
2021/05/07 10:58:32;;;;;;;4.45;2.00;;;;;;;19.50;41.46;97713.26;1734167;80;21239;-69
2021/05/07 11:00:58;;;;;;;4.30;2.60;;;;;;;19.54;41.31;97703.44;1763220;80;21371;-73
2021/05/07 11:03:24;;;;;;;2.62;2.00;;;;;;;19.69;41.14;97703.38;1764470;80;21191;-71
2021/05/07 11:05:50;;;;;;;3.85;2.17;;;;;;;19.81;40.83;97698.78;1764213;80;21163;-71
2021/05/07 11:08:17;;;;;;;2.70;2.00;;;;;;;19.93;40.64;97701.15;1769417;80;21190;-70
2021/05/07 11:10:43;;;;;;;2.80;2.30;;;;;;;20.12;40.46;97696.71;1761643;80;21164;-70
2021/05/07 11:13:09;;;;;;;4.00;2.33;;;;;;;20.34;40.75;97696.17;1763433;80;21177;-70
2021/05/07 11:15:35;;;;;;;2.72;2.00;;;;;;;20.51;40.36;97705.34;1767486;80;21176;-69
2021/05/07 11:18:06;;;;;;;3.00;1.90;;;;;;;20.59;39.97;97688.50;1756921;80;21174;-71
2021/05/07 11:20:37;;;;;;;3.22;2.10;;;;;;;20.60;39.88;97685.90;1753725;82;21162;-72
2021/05/07 11:23:06;;;;;;;6.30;2.60;;;;;;;20.67;39.98;97677.04;1754369;82;21693;-73
2021/05/07 11:25:32;;;;;;;2.90;2.27;;;;;;;20.76;40.11;97672.70;1753965;82;21154;-74
2021/05/07 11:28:17;;;;;;;3.80;2.30;;;;;;;20.86;39.90;97672.66;1754574;82;21519;-73
2021/05/07 11:30:53;;;;;;;4.45;2.40;;;;;;;20.38;39.73;97658.88;1754148;81;21584;-72
2021/05/07 11:33:20;;;;;;;3.75;2.27;;;;;;;20.58;40.11;97674.59;1762630;80;21175;-72
2021/05/07 11:35:46;;;;;;;;;;;;;;;20.54;40.64;97670.53;1766870;80;21509;-71